createdAt,value
2022-11-29T00:01:42.488Z,90.26
2022-11-29T00:04:11.370Z,91.04
2022-11-29T00:06:40.087Z,91.28
2022-11-29T00:09:11.681Z,92.27
2022-11-29T00:11:58.952Z,92.56
2022-11-29T00:14:29.115Z,92.47
2022-11-29T00:17:02.664Z,93.36
2022-11-29T00:19:32.389Z,93.72
2022-11-29T00:22:01.652Z,93.81
2022-11-29T00:24:31.733Z,94.31
2022-11-29T00:27:00.487Z,95.18
2022-11-29T00:29:30.053Z,96.41
2022-11-29T00:31:58.521Z,96.01
2022-11-29T00:34:26.897Z,96.15
2022-11-29T00:36:54.961Z,96.21
2022-11-29T00:39:23.125Z,96.75
2022-11-29T00:41:51.288Z,97.21
2022-11-29T00:44:20.688Z,97.15
2022-11-29T00:46:50.238Z,97.41
2022-11-29T00:49:18.908Z,97.18
2022-11-29T00:51:47.846Z,97.15
2022-11-29T00:54:16.351Z,96.91
2022-11-29T00:56:45.142Z,97.52
2022-11-29T00:59:13.626Z,97.00
2022-11-29T01:01:42.130Z,97.53
2022-11-29T01:04:10.227Z,97.28
2022-11-29T01:06:38.713Z,97.48
2022-11-29T01:09:07.330Z,97.68
2022-11-29T01:11:35.685Z,97.69
2022-11-29T01:14:04.428Z,97.95
2022-11-29T01:16:33.720Z,98.13
2022-11-29T01:19:02.585Z,98.14
2022-11-29T01:21:31.376Z,98.46
2022-11-29T01:24:00.575Z,98.36
2022-11-29T01:26:31.648Z,98.14
2022-11-29T01:29:00.422Z,98.26
2022-11-29T01:31:36.292Z,98.04
2022-11-29T01:34:07.054Z,97.94
2022-11-29T01:36:36.097Z,98.25
2022-11-29T01:39:06.852Z,98.11
2022-11-29T01:41:38.061Z,97.98
2022-11-29T01:44:14.917Z,98.01
2022-11-29T01:46:46.838Z,97.78
2022-11-29T01:49:23.812Z,98.25
2022-11-29T01:52:09.883Z,97.88
2022-11-29T01:54:43.693Z,98.19
2022-11-29T01:57:12.402Z,98.29
2022-11-29T01:59:45.793Z,98.10
2022-11-29T02:02:37.336Z,98.47
2022-11-29T02:05:06.459Z,97.98
2022-11-29T02:07:34.986Z,97.84
2022-11-29T02:10:03.642Z,98.18
2022-11-29T02:13:34.421Z,97.73
2022-11-29T02:16:58.152Z,97.90
2022-11-29T02:19:56.077Z,98.25
2022-11-29T02:22:58.978Z,98.20
2022-11-29T02:26:26.964Z,98.76
2022-11-29T02:29:44.259Z,98.32
2022-11-29T02:32:41.449Z,98.31
2022-11-29T02:35:45.423Z,98.28
2022-11-29T02:38:49.356Z,98.00
2022-11-29T02:41:26.165Z,98.43
2022-11-29T02:44:15.253Z,98.86
2022-11-29T02:46:55.883Z,98.76
2022-11-29T02:49:45.108Z,98.89
2022-11-29T02:52:36.514Z,98.83
2022-11-29T02:55:46.579Z,98.71
2022-11-29T02:59:02.515Z,99.14
2022-11-29T03:01:43.029Z,98.13
2022-11-29T03:04:30.030Z,98.60
2022-11-29T03:07:29.300Z,98.60
2022-11-29T03:10:32.238Z,99.08
2022-11-29T03:13:01.119Z,99.23
2022-11-29T03:15:46.354Z,99.21
2022-11-29T03:18:50.866Z,99.15
2022-11-29T03:21:36.751Z,99.13
2022-11-29T03:24:25.095Z,99.55
2022-11-29T03:27:09.722Z,99.31
2022-11-29T03:29:46.936Z,99.54
2022-11-29T03:32:47.436Z,98.75
2022-11-29T03:36:09.098Z,99.34
2022-11-29T03:38:43.516Z,99.70
2022-11-29T03:41:16.632Z,99.35
2022-11-29T03:43:45.050Z,99.97
2022-11-29T03:47:02.572Z,100.00
2022-11-29T03:50:07.615Z,100.00
2022-11-29T03:53:06.011Z,100.00
2022-11-29T03:55:47.368Z,100.00
2022-11-29T03:59:13.328Z,100.00
2022-11-29T04:02:08.636Z,100.00
2022-11-29T04:05:10.595Z,100.00
2022-11-29T04:07:52.166Z,100.00
2022-11-29T04:10:50.279Z,100.00
2022-11-29T04:13:34.308Z,100.00
2022-11-29T04:16:47.365Z,100.00
2022-11-29T04:19:33.859Z,100.00
2022-11-29T04:22:39.392Z,100.00
2022-11-29T04:26:04.329Z,100.00
2022-11-29T04:29:14.116Z,100.00
2022-11-29T04:32:15.528Z,100.00
2022-11-29T04:35:01.151Z,100.00
2022-11-29T04:37:47.067Z,100.00
2022-11-29T04:41:11.422Z,100.00
2022-11-29T04:44:17.387Z,100.00
2022-11-29T04:47:00.146Z,100.00
2022-11-29T04:49:56.651Z,100.00
2022-11-29T04:52:38.205Z,100.00
2022-11-29T04:55:34.947Z,100.00
2022-11-29T04:58:26.117Z,100.00
2022-11-29T05:01:05.978Z,100.00
2022-11-29T05:04:08.480Z,100.00
2022-11-29T05:07:01.174Z,100.00
2022-11-29T05:10:06.545Z,100.00
2022-11-29T05:13:12.154Z,100.00
2022-11-29T05:15:55.539Z,100.00
2022-11-29T05:18:45.370Z,100.00
2022-11-29T05:21:43.858Z,100.00
2022-11-29T05:24:51.206Z,100.00
2022-11-29T05:27:51.427Z,100.00
2022-11-29T05:30:23.317Z,100.00
2022-11-29T05:33:06.523Z,100.00
2022-11-29T05:35:37.661Z,100.00
2022-11-29T05:38:10.075Z,100.00
2022-11-29T05:41:12.936Z,100.00
2022-11-29T05:44:14.179Z,100.00
2022-11-29T05:47:03.635Z,100.00
2022-11-29T05:50:00.603Z,100.00
2022-11-29T05:53:18.603Z,100.00
2022-11-29T05:56:01.937Z,100.00
2022-11-29T05:59:18.222Z,100.00
2022-11-29T06:02:02.041Z,100.00
2022-11-29T06:05:15.672Z,100.00
2022-11-29T06:07:52.889Z,100.00
2022-11-29T06:10:26.328Z,100.00
2022-11-29T06:13:31.975Z,100.00
2022-11-29T06:16:35.387Z,100.00
2022-11-29T06:19:43.555Z,100.00
2022-11-29T06:22:32.736Z,100.00
2022-11-29T06:25:49.478Z,100.00
2022-11-29T06:28:42.270Z,100.00
2022-11-29T06:31:29.883Z,100.00
2022-11-29T06:34:11.906Z,100.00
2022-11-29T06:36:58.688Z,100.00
2022-11-29T06:39:27.388Z,100.00
2022-11-29T06:41:55.818Z,100.00
2022-11-29T06:44:24.273Z,100.00
2022-11-29T06:47:33.159Z,100.00
2022-11-29T06:50:22.894Z,100.00
2022-11-29T06:53:00.966Z,100.00
2022-11-29T06:55:33.077Z,100.00
2022-11-29T06:58:36.386Z,100.00
2022-11-29T07:01:18.451Z,100.00
2022-11-29T07:03:54.388Z,100.00
2022-11-29T07:06:27.187Z,100.00
2022-11-29T07:09:02.656Z,100.00
2022-11-29T07:11:31.363Z,100.00
2022-11-29T07:13:59.696Z,100.00
2022-11-29T07:16:35.027Z,100.00
2022-11-29T07:19:22.027Z,100.00
2022-11-29T07:22:05.858Z,100.00
2022-11-29T07:24:55.587Z,100.00
2022-11-29T07:27:57.244Z,100.00
2022-11-29T07:30:57.533Z,100.00
2022-11-29T07:33:45.468Z,100.00
2022-11-29T07:37:20.931Z,100.00
2022-11-29T07:40:12.736Z,100.00
2022-11-29T07:43:16.585Z,100.00
2022-11-29T07:45:45.865Z,100.00
2022-11-29T07:48:14.623Z,100.00
2022-11-29T07:50:42.773Z,100.00
2022-11-29T07:53:22.410Z,100.00
2022-11-29T07:55:51.513Z,100.00
2022-11-29T07:58:20.196Z,100.00
2022-11-29T08:00:48.731Z,100.00
2022-11-29T08:03:16.820Z,100.00
2022-11-29T08:05:48.368Z,100.00
2022-11-29T08:08:17.203Z,100.00
2022-11-29T08:10:45.270Z,100.00
2022-11-29T08:13:13.538Z,100.00
2022-11-29T08:15:48.914Z,100.00
2022-11-29T08:18:17.645Z,100.00
2022-11-29T08:20:46.379Z,100.00
2022-11-29T08:23:16.635Z,100.00
2022-11-29T08:25:45.883Z,100.00
2022-11-29T08:28:14.714Z,100.00
2022-11-29T08:30:42.782Z,100.00
2022-11-29T08:33:11.271Z,100.00
2022-11-29T08:35:39.940Z,100.00
2022-11-29T08:38:08.373Z,100.00
2022-11-29T08:40:36.899Z,100.00
2022-11-29T08:43:05.406Z,100.00
2022-11-29T08:45:33.991Z,100.00
2022-11-29T08:48:02.895Z,100.00
2022-11-29T08:50:31.376Z,100.00
2022-11-29T08:53:17.559Z,100.00
2022-11-29T08:55:46.731Z,100.00
2022-11-29T08:58:16.942Z,100.00
2022-11-29T09:00:47.394Z,100.00
2022-11-29T09:03:33.425Z,100.00
2022-11-29T09:06:14.328Z,100.00
2022-11-29T09:08:44.117Z,100.00
2022-11-29T09:11:22.210Z,100.00
2022-11-29T09:13:54.150Z,99.84
2022-11-29T09:16:26.844Z,99.37
2022-11-29T09:18:56.077Z,99.53
2022-11-29T09:21:29.258Z,99.34
2022-11-29T09:24:00.329Z,99.22
2022-11-29T09:26:31.472Z,98.75
2022-11-29T09:29:05.133Z,98.45
2022-11-29T09:31:34.591Z,98.18
2022-11-29T09:34:03.237Z,98.35
2022-11-29T09:36:32.323Z,97.74
2022-11-29T09:39:03.402Z,97.75
2022-11-29T09:42:06.609Z,97.76
2022-11-29T09:44:40.933Z,97.75
2022-11-29T09:47:19.609Z,97.17
2022-11-29T09:50:25.645Z,97.06
2022-11-29T09:53:17.511Z,96.99
2022-11-29T09:55:58.667Z,96.62
2022-11-29T09:58:33.311Z,96.39
2022-11-29T10:01:09.950Z,96.29
2022-11-29T10:03:44.761Z,96.57
2022-11-29T10:06:22.789Z,96.72
2022-11-29T10:09:18.550Z,96.60
2022-11-29T10:12:24.840Z,96.59
2022-11-29T10:15:22.128Z,96.01
2022-11-29T10:18:06.152Z,96.17
2022-11-29T10:20:43.567Z,95.94
2022-11-29T10:23:14.418Z,95.97
2022-11-29T10:25:55.311Z,95.18
2022-11-29T10:28:31.264Z,94.98
2022-11-29T10:31:19.543Z,94.50
2022-11-29T10:33:48.366Z,93.45
2022-11-29T10:36:36.053Z,93.97
2022-11-29T10:39:18.456Z,93.67
2022-11-29T10:41:46.881Z,93.45
2022-11-29T10:44:16.277Z,93.34
2022-11-29T10:46:44.776Z,92.36
2022-11-29T10:49:19.311Z,92.07
2022-11-29T10:51:48.182Z,92.04
2022-11-29T10:54:43.174Z,92.70
2022-11-29T10:57:21.968Z,92.41
2022-11-29T11:00:12.612Z,92.52
2022-11-29T11:02:41.644Z,92.06
2022-11-29T11:05:18.729Z,91.96
2022-11-29T11:07:47.518Z,91.63
2022-11-29T11:10:29.523Z,91.87
2022-11-29T11:13:21.387Z,92.10
2022-11-29T11:15:49.795Z,92.03
2022-11-29T11:18:24.459Z,92.25
2022-11-29T11:21:01.991Z,91.84
2022-11-29T11:23:42.404Z,91.06
2022-11-29T11:26:14.863Z,90.71
2022-11-29T11:28:59.703Z,90.55
2022-11-29T11:31:41.495Z,90.41
2022-11-29T11:34:37.470Z,89.74
2022-11-29T11:37:23.521Z,90.02
2022-11-29T11:39:57.051Z,90.25
2022-11-29T11:42:39.589Z,89.92
2022-11-29T11:45:13.703Z,89.61
2022-11-29T11:47:55.311Z,89.85
2022-11-29T11:50:51.847Z,89.98
2022-11-29T11:53:28.973Z,89.74
2022-11-29T11:56:09.636Z,89.68
2022-11-29T11:58:59.147Z,89.59
2022-11-29T12:01:37.316Z,89.18
2022-11-29T12:04:20.724Z,89.21
2022-11-29T12:06:52.669Z,89.11
2022-11-29T12:09:49.078Z,88.79
2022-11-29T12:12:29.937Z,88.49
2022-11-29T12:15:08.887Z,88.91
2022-11-29T12:18:03.558Z,89.13
2022-11-29T12:20:43.360Z,88.60
2022-11-29T12:23:14.404Z,88.84
2022-11-29T12:25:53.456Z,88.84
2022-11-29T12:28:23.759Z,88.66
2022-11-29T12:31:13.470Z,88.53
2022-11-29T12:34:12.328Z,88.58
2022-11-29T12:37:18.381Z,88.56
2022-11-29T12:40:06.332Z,88.53
2022-11-29T12:42:53.884Z,88.93
2022-11-29T12:46:25.211Z,89.22
2022-11-29T12:49:02.129Z,89.58
2022-11-29T12:52:15.120Z,89.67
2022-11-29T12:55:17.003Z,89.50
2022-11-29T12:58:06.259Z,89.54
2022-11-29T13:00:54.237Z,89.91
2022-11-29T13:03:46.199Z,89.33
2022-11-29T13:06:44.966Z,89.44
2022-11-29T13:09:28.402Z,89.17
2022-11-29T13:12:18.380Z,89.05
2022-11-29T13:15:10.168Z,89.52
2022-11-29T13:17:58.865Z,89.23
2022-11-29T13:20:32.097Z,89.13
2022-11-29T13:24:07.362Z,89.71
2022-11-29T13:26:30.549Z,89.80
2022-11-29T13:28:59.450Z,89.78
2022-11-29T13:31:27.930Z,89.77
2022-11-29T13:34:17.346Z,89.91
2022-11-29T13:37:20.132Z,90.29
2022-11-29T13:40:00.521Z,90.10
2022-11-29T13:42:59.187Z,89.56
2022-11-29T13:45:42.474Z,89.88
2022-11-29T13:48:50.187Z,89.82
2022-11-29T13:51:44.689Z,90.68
2022-11-29T13:54:33.457Z,90.45
2022-11-29T13:57:08.943Z,90.46
2022-11-29T13:59:47.308Z,90.75
2022-11-29T14:02:31.948Z,90.92
2022-11-29T14:05:00.493Z,91.00
2022-11-29T14:07:29.020Z,90.96
2022-11-29T14:10:07.519Z,91.19
2022-11-29T14:12:50.985Z,91.24
2022-11-29T14:15:32.045Z,90.93
2022-11-29T14:18:08.999Z,91.32
2022-11-29T14:20:56.513Z,91.84
2022-11-29T14:23:44.174Z,91.84
2022-11-29T14:26:12.628Z,92.31
2022-11-29T14:28:41.865Z,91.78
2022-11-29T14:31:11.506Z,92.01
2022-11-29T14:33:48.334Z,92.26
2022-11-29T14:36:17.653Z,91.83
2022-11-29T14:39:15.571Z,91.82
2022-11-29T14:41:56.994Z,91.86
2022-11-29T14:44:29.088Z,91.88
2022-11-29T14:47:29.975Z,92.22
2022-11-29T14:50:01.610Z,92.46
2022-11-29T14:52:54.282Z,92.28
2022-11-29T14:55:22.711Z,92.52
2022-11-29T14:58:03.676Z,92.27
2022-11-29T15:00:44.739Z,92.52
2022-11-29T15:03:18.124Z,91.60
2022-11-29T15:06:09.001Z,91.85
2022-11-29T15:09:04.693Z,92.09
2022-11-29T15:11:42.426Z,92.14
2022-11-29T15:14:31.586Z,92.08
2022-11-29T15:17:53.352Z,91.74
2022-11-29T15:20:39.643Z,91.44
2022-11-29T15:23:16.191Z,91.17
2022-11-29T15:25:53.236Z,91.46
2022-11-29T15:28:30.598Z,91.48
2022-11-29T15:31:09.191Z,91.57
2022-11-29T15:33:42.199Z,91.69
2022-11-29T15:36:19.960Z,91.71
2022-11-29T15:38:53.660Z,91.87
2022-11-29T15:41:35.661Z,91.79
2022-11-29T15:44:07.412Z,91.43
2022-11-29T15:46:37.024Z,91.54
2022-11-29T15:49:28.173Z,91.66
2022-11-29T15:52:05.623Z,91.92
2022-11-29T15:54:42.063Z,91.88
2022-11-29T15:57:33.170Z,91.88
2022-11-29T16:00:27.494Z,91.90
2022-11-29T16:03:01.966Z,91.48
2022-11-29T16:05:38.960Z,91.64
2022-11-29T16:08:18.829Z,91.87
2022-11-29T16:10:53.313Z,91.85
2022-11-29T16:13:31.170Z,92.47
2022-11-29T16:16:21.598Z,91.63
2022-11-29T16:18:52.070Z,91.58
2022-11-29T16:21:33.553Z,91.69
2022-11-29T16:24:21.855Z,91.38
2022-11-29T16:26:51.802Z,91.58
2022-11-29T16:29:32.682Z,91.11
2022-11-29T16:32:01.791Z,91.22
2022-11-29T16:34:33.828Z,91.49
2022-11-29T16:37:17.592Z,90.80
2022-11-29T16:39:50.099Z,91.23
2022-11-29T16:42:26.059Z,91.42
2022-11-29T16:45:05.375Z,90.65
2022-11-29T16:47:58.038Z,90.66
2022-11-29T16:50:33.491Z,90.38
2022-11-29T16:53:39.542Z,90.53
2022-11-29T16:56:14.534Z,90.44
2022-11-29T16:59:17.322Z,90.48
2022-11-29T17:01:33.594Z,90.92
2022-11-29T17:04:02.160Z,91.18
2022-11-29T17:06:31.320Z,90.72
2022-11-29T17:09:00.768Z,90.45
2022-11-29T17:11:29.288Z,90.44
2022-11-29T17:13:57.501Z,91.00
2022-11-29T17:16:26.267Z,91.29
2022-11-29T17:18:54.831Z,91.56
2022-11-29T17:21:29.545Z,92.45
2022-11-29T17:23:58.388Z,93.11
2022-11-29T17:26:26.864Z,94.09
2022-11-29T17:28:55.439Z,94.96
2022-11-29T17:31:25.908Z,95.50
2022-11-29T17:33:54.217Z,95.89
2022-11-29T17:36:22.836Z,96.67
2022-11-29T17:38:50.921Z,96.89
2022-11-29T17:41:23.051Z,97.14
2022-11-29T17:43:56.726Z,97.74
2022-11-29T17:46:37.027Z,97.57
2022-11-29T17:49:10.014Z,97.79
2022-11-29T17:51:55.469Z,97.83
2022-11-29T17:54:24.428Z,97.54
2022-11-29T17:56:53.164Z,98.06
2022-11-29T17:59:21.940Z,97.95
2022-11-29T18:01:50.562Z,97.88
2022-11-29T18:04:19.251Z,97.95
2022-11-29T18:06:50.188Z,98.26
2022-11-29T18:09:20.209Z,98.71
2022-11-29T18:11:50.639Z,99.34
2022-11-29T18:14:24.176Z,99.24
2022-11-29T18:16:53.300Z,99.43
2022-11-29T18:19:23.852Z,99.17
2022-11-29T18:21:52.462Z,99.05
2022-11-29T18:24:20.978Z,99.32
2022-11-29T18:26:49.620Z,99.38
2022-11-29T18:29:18.155Z,98.83
2022-11-29T18:31:47.674Z,98.63
2022-11-29T18:34:16.178Z,98.74
2022-11-29T18:36:49.571Z,98.78
2022-11-29T18:39:23.613Z,99.10
2022-11-29T18:41:52.447Z,98.53
2022-11-29T18:44:24.256Z,98.56
2022-11-29T18:46:52.338Z,99.39
2022-11-29T18:49:20.836Z,99.01
2022-11-29T18:51:50.979Z,98.96
2022-11-29T18:54:20.648Z,98.81
2022-11-29T18:56:51.863Z,98.95
2022-11-29T18:59:21.989Z,98.35
2022-11-29T19:01:50.695Z,98.37
2022-11-29T19:04:21.407Z,98.09
2022-11-29T19:06:50.442Z,98.51
2022-11-29T19:09:23.422Z,98.20
2022-11-29T19:11:52.104Z,97.92
2022-11-29T19:14:22.197Z,97.68
2022-11-29T19:16:51.138Z,97.49
2022-11-29T19:19:20.112Z,97.45
2022-11-29T19:21:52.004Z,97.31
2022-11-29T19:24:21.169Z,96.95
2022-11-29T19:26:49.690Z,97.04
2022-11-29T19:29:18.495Z,96.67
2022-11-29T19:31:47.038Z,96.46
2022-11-29T19:34:15.511Z,95.46
2022-11-29T19:36:45.333Z,95.62
2022-11-29T19:39:18.626Z,95.82
2022-11-29T19:41:48.812Z,95.83
2022-11-29T19:44:17.450Z,95.56
2022-11-29T19:46:49.542Z,96.09
2022-11-29T19:49:18.075Z,95.65
2022-11-29T19:51:46.872Z,96.00
2022-11-29T19:54:15.633Z,95.75
2022-11-29T19:56:44.327Z,95.53
2022-11-29T19:59:12.790Z,95.65
2022-11-29T20:01:42.571Z,95.65
2022-11-29T20:04:13.577Z,95.20
2022-11-29T20:06:42.270Z,95.42
2022-11-29T20:09:11.108Z,95.14
2022-11-29T20:11:39.661Z,95.22
2022-11-29T20:14:09.276Z,94.93
2022-11-29T20:16:39.160Z,94.87
2022-11-29T20:19:17.238Z,94.96
2022-11-29T20:21:48.922Z,94.94
2022-11-29T20:24:17.905Z,95.02
2022-11-29T20:26:48.467Z,95.66
2022-11-29T20:29:17.568Z,95.39
2022-11-29T20:31:50.716Z,95.02
2022-11-29T20:34:20.607Z,95.05
2022-11-29T20:37:17.993Z,94.75
2022-11-29T20:40:00.889Z,94.77
2022-11-29T20:42:50.394Z,94.54
2022-11-29T20:45:19.358Z,94.68
2022-11-29T20:47:52.316Z,94.79
2022-11-29T20:50:25.034Z,94.90
2022-11-29T20:53:08.800Z,95.46
2022-11-29T20:55:42.474Z,95.35
2022-11-29T20:58:14.991Z,94.92
2022-11-29T21:00:43.270Z,94.83
2022-11-29T21:03:18.557Z,94.83
2022-11-29T21:05:47.340Z,94.23
2022-11-29T21:08:17.638Z,94.06
2022-11-29T21:10:46.554Z,94.45
2022-11-29T21:13:16.811Z,94.94
2022-11-29T21:15:45.743Z,94.49
2022-11-29T21:18:29.114Z,94.60
2022-11-29T21:21:07.529Z,95.41
2022-11-29T21:24:09.127Z,95.37
2022-11-29T21:26:43.042Z,96.10
2022-11-29T21:29:11.411Z,96.08
2022-11-29T21:31:40.092Z,96.18
2022-11-29T21:34:08.726Z,96.29
2022-11-29T21:36:38.099Z,96.26
2022-11-29T21:39:08.191Z,96.14
2022-11-29T21:41:36.383Z,96.01
2022-11-29T21:44:06.994Z,95.82
2022-11-29T21:46:36.344Z,96.10
2022-11-29T21:49:05.449Z,96.29
2022-11-29T21:51:34.543Z,96.40
2022-11-29T21:54:03.323Z,96.03
2022-11-29T21:56:31.741Z,96.11
2022-11-29T21:58:59.874Z,96.25
2022-11-29T22:01:29.283Z,96.01
2022-11-29T22:03:57.931Z,95.94
2022-11-29T22:06:26.388Z,95.89
2022-11-29T22:08:54.853Z,95.71
2022-11-29T22:11:31.817Z,95.74
2022-11-29T22:14:15.144Z,95.95
2022-11-29T22:16:54.606Z,96.19
2022-11-29T22:19:26.705Z,96.06
2022-11-29T22:22:04.082Z,95.96
2022-11-29T22:24:35.457Z,95.51
2022-11-29T22:27:04.079Z,95.92
2022-11-29T22:29:32.592Z,95.85
2022-11-29T22:32:01.565Z,96.29
2022-11-29T22:34:32.889Z,96.18
2022-11-29T22:37:01.580Z,95.46
2022-11-29T22:39:30.135Z,95.66
2022-11-29T22:41:58.576Z,95.34
2022-11-29T22:44:27.276Z,95.29
2022-11-29T22:46:55.693Z,95.20
2022-11-29T22:49:24.152Z,94.80
2022-11-29T22:51:52.623Z,95.10
2022-11-29T22:54:23.090Z,94.69
2022-11-29T22:56:52.319Z,94.11
2022-11-29T22:59:20.740Z,94.26
2022-11-29T23:01:49.371Z,94.43
2022-11-29T23:04:17.859Z,94.13
2022-11-29T23:06:47.430Z,94.20
2022-11-29T23:09:21.702Z,94.02
2022-11-29T23:11:56.114Z,93.91
2022-11-29T23:14:24.676Z,94.07
2022-11-29T23:16:54.829Z,94.21
2022-11-29T23:19:22.932Z,94.21
2022-11-29T23:21:51.989Z,93.97
2022-11-29T23:24:22.458Z,93.98
2022-11-29T23:26:50.535Z,93.81
2022-11-29T23:29:20.539Z,94.18
2022-11-29T23:31:49.730Z,93.90
2022-11-29T23:34:18.244Z,93.63
2022-11-29T23:36:52.433Z,93.01
2022-11-29T23:39:21.396Z,92.93
2022-11-29T23:41:49.747Z,93.37
2022-11-29T23:44:17.733Z,93.38
2022-11-29T23:46:46.531Z,92.54
2022-11-29T23:49:15.144Z,92.38
2022-11-29T23:51:43.518Z,92.77
2022-11-29T23:54:12.062Z,92.68
2022-11-29T23:56:40.492Z,92.77
2022-11-29T23:59:09.102Z,92.73
